Time;durP1;ratioP1;P1;durP2;ratioP2;P2;SDS_P1;SDS_P2;PMS_P1;PMS_P2;Temp;Humidity;BMP_temperature;BMP_pressure;BME280_temperature;BME280_humidity;BME280_pressure;Samples;Min_cycle;Max_cycle;Signal;HPM_P1;HPM_P2
2023/04/20 00:01:02;;;;;;;17.00;10.80;;;;;;;10.68;88.83;94281.97;5091246;28;20623;-79
2023/04/20 00:03:31;;;;;;;15.93;10.00;;;;;;;10.68;88.79;94277.59;5101684;28;20200;-79
2023/04/20 00:06:00;;;;;;;12.93;9.90;;;;;;;10.60;89.56;94257.16;5096691;28;20193;-80
2023/04/20 00:08:28;;;;;;;11.83;9.77;;;;;;;10.56;89.66;94268.22;5098601;28;20231;-79
2023/04/20 00:10:55;;;;;;;12.23;9.40;;;;;;;10.39;90.33;94275.91;5093007;28;20212;-79
2023/04/20 00:13:22;;;;;;;15.83;10.07;;;;;;;10.05;92.03;94256.66;5099286;28;20203;-79
2023/04/20 00:15:49;;;;;;;16.03;11.00;;;;;;;9.94;92.65;94267.03;5077921;28;20217;-79
2023/04/20 00:18:16;;;;;;;15.50;10.40;;;;;;;9.77;94.33;94260.91;5100211;28;20196;-79
2023/04/20 00:20:43;;;;;;;13.27;10.30;;;;;;;9.74;94.28;94266.53;5094495;28;20204;-80
2023/04/20 00:23:10;;;;;;;15.30;11.03;;;;;;;9.70;95.18;94248.00;5100183;28;20201;-79
2023/04/20 00:25:38;;;;;;;14.90;10.03;;;;;;;9.86;94.38;94260.34;5101473;28;20203;-79
2023/04/20 00:28:05;;;;;;;12.47;9.67;;;;;;;10.04;94.29;94257.66;5096297;28;20203;-79
2023/04/20 00:30:31;;;;;;;14.03;10.50;;;;;;;10.16;93.28;94242.13;5098301;28;20209;-79
2023/04/20 00:32:58;;;;;;;12.97;10.37;;;;;;;10.30;93.42;94255.69;5104602;28;20862;-80
2023/04/20 00:35:25;;;;;;;15.53;10.30;;;;;;;10.37;92.40;94253.75;5096606;28;20230;-79
2023/04/20 00:37:52;;;;;;;22.20;11.17;;;;;;;10.45;92.26;94258.63;5103788;28;20192;-78
2023/04/20 00:40:19;;;;;;;15.80;10.47;;;;;;;10.51;91.63;94263.69;5096363;28;20608;-79
2023/04/20 00:42:47;;;;;;;14.30;10.73;;;;;;;10.46;91.77;94258.41;5097050;28;20716;-79
2023/04/20 00:45:14;;;;;;;16.37;9.90;;;;;;;10.41;92.13;94260.09;5096618;28;20200;-79
2023/04/20 00:47:41;;;;;;;14.57;10.13;;;;;;;10.44;92.24;94252.66;5098221;28;20211;-79
2023/04/20 00:50:09;;;;;;;15.73;9.77;;;;;;;10.55;92.31;94262.25;5097297;28;20853;-79
2023/04/20 00:52:36;;;;;;;14.00;9.93;;;;;;;10.58;91.58;94256.59;5098209;28;20197;-79
2023/04/20 00:55:05;;;;;;;16.07;10.27;;;;;;;10.48;91.77;94256.34;5099783;28;20281;-79
2023/04/20 00:57:32;;;;;;;13.17;9.57;;;;;;;10.57;91.31;94255.00;5094683;28;20204;-80
2023/04/20 01:00:01;;;;;;;14.17;10.00;;;;;;;10.59;91.49;94252.97;5078373;28;20197;-79
2023/04/20 01:02:28;;;;;;;14.67;9.57;;;;;;;10.58;91.33;94251.41;5097366;28;20633;-78
2023/04/20 01:04:55;;;;;;;12.90;9.37;;;;;;;10.67;91.90;94250.03;5104302;28;20227;-79
2023/04/20 01:07:22;;;;;;;12.50;9.13;;;;;;;10.61;91.83;94247.56;5100898;28;21602;-79
2023/04/20 01:09:50;;;;;;;18.80;9.63;;;;;;;10.54;91.32;94245.06;5102041;28;20235;-79
2023/04/20 01:12:16;;;;;;;15.23;10.07;;;;;;;10.45;91.83;94243.03;5095977;28;20708;-80
2023/04/20 01:14:43;;;;;;;13.93;9.60;;;;;;;10.37;92.16;94240.78;5100243;28;20204;-80
2023/04/20 01:17:13;;;;;;;14.37;10.03;;;;;;;10.49;91.45;94247.56;5088492;28;20295;-80
2023/04/20 01:19:40;;;;;;;15.17;10.07;;;;;;;10.46;92.20;94247.22;5086721;28;20201;-80
2023/04/20 01:22:07;;;;;;;15.37;10.20;;;;;;;10.49;92.58;94247.56;5092353;28;20238;-78
2023/04/20 01:24:35;;;;;;;21.23;10.13;;;;;;;10.32;92.73;94254.44;5092818;28;20545;-79
2023/04/20 01:27:02;;;;;;;19.97;10.60;;;;;;;10.39;92.57;94243.97;5098651;28;20326;-80
2023/04/20 01:29:29;;;;;;;17.87;10.90;;;;;;;10.17;94.01;94243.72;5095152;28;20268;-80
2023/04/20 01:31:56;;;;;;;13.57;9.83;;;;;;;9.93;93.88;94249.84;5099796;28;20574;-80
2023/04/20 01:34:29;;;;;;;12.43;9.70;;;;;;;9.76;95.07;94244.53;5094367;28;20197;-79
2023/04/20 01:36:55;;;;;;;12.10;9.77;;;;;;;9.74;95.19;94237.97;5086631;28;20774;-80
2023/04/20 01:39:22;;;;;;;14.70;10.37;;;;;;;9.62;96.23;94227.56;5092376;28;20203;-79
2023/04/20 01:41:50;;;;;;;14.63;9.50;;;;;;;9.55;96.86;94229.50;5094014;28;20204;-80
2023/04/20 01:44:18;;;;;;;13.30;9.20;;;;;;;9.40;97.21;94223.91;5093922;28;20259;-79
2023/04/20 01:46:44;;;;;;;14.50;10.00;;;;;;;9.36;98.72;94230.53;5098842;28;20189;-80
2023/04/20 01:49:11;;;;;;;14.70;10.00;;;;;;;9.33;98.84;94223.22;5093835;28;20661;-80
2023/04/20 01:51:38;;;;;;;13.27;9.87;;;;;;;9.33;98.52;94220.63;5097646;28;20200;-79
2023/04/20 01:54:05;;;;;;;13.87;10.47;;;;;;;9.54;98.51;94217.53;5100778;28;20200;-79
2023/04/20 01:56:32;;;;;;;17.30;10.73;;;;;;;9.41;97.74;94213.31;5103668;28;20273;-80
2023/04/20 01:59:00;;;;;;;12.07;9.30;;;;;;;9.46;98.20;94228.22;5103141;28;20572;-79
2023/04/20 02:01:27;;;;;;;13.90;9.50;;;;;;;9.27;99.30;94222.28;5099376;28;20223;-80
2023/04/20 02:03:54;;;;;;;14.47;9.83;;;;;;;9.16;99.94;94222.25;5110308;28;20399;-80
2023/04/20 02:06:20;;;;;;;13.00;10.07;;;;;;;9.22;100.00;94223.97;5111366;28;20195;-81
2023/04/20 02:08:47;;;;;;;13.97;9.73;;;;;;;9.47;99.86;94219.41;5108243;28;20265;-80
2023/04/20 02:11:14;;;;;;;14.93;10.03;;;;;;;9.48;99.97;94218.41;5100584;28;20284;-80
2023/04/20 02:13:41;;;;;;;11.93;9.30;;;;;;;9.50;99.22;94219.78;5102441;28;20196;-80
2023/04/20 02:16:09;;;;;;;14.07;9.17;;;;;;;9.52;99.33;94212.53;5105012;28;20718;-79
2023/04/20 02:18:36;;;;;;;14.83;9.80;;;;;;;9.54;99.64;94217.53;5107046;28;20204;-80
2023/04/20 02:21:03;;;;;;;13.77;9.27;;;;;;;9.59;98.85;94220.25;5102258;28;20201;-80
2023/04/20 02:23:30;;;;;;;19.10;9.63;;;;;;;9.58;99.00;94198.69;5103453;28;20204;-80
2023/04/20 02:25:57;;;;;;;11.23;9.00;;;;;;;9.79;97.56;94222.53;5097989;28;20204;-79
2023/04/20 02:28:23;;;;;;;14.17;9.63;;;;;;;9.80;97.66;94229.31;5099817;28;20199;-81
2023/04/20 02:30:51;;;;;;;14.93;9.80;;;;;;;9.86;97.25;94216.25;5113825;28;20272;-81
2023/04/20 02:33:20;;;;;;;11.83;9.13;;;;;;;10.02;96.62;94220.75;5120573;28;20193;-81
2023/04/20 02:35:47;;;;;;;18.47;10.23;;;;;;;10.13;96.19;94216.59;5102485;28;20221;-81
2023/04/20 02:38:14;;;;;;;17.70;10.60;;;;;;;10.18;95.35;94217.53;5098175;28;20189;-81
2023/04/20 02:40:41;;;;;;;26.90;10.20;;;;;;;10.31;94.70;94228.69;5090804;28;20204;-79
2023/04/20 02:43:08;;;;;;;13.70;10.63;;;;;;;10.34;95.02;94225.66;5096416;28;20200;-80
2023/04/20 02:45:35;;;;;;;18.03;11.03;;;;;;;10.31;94.48;94221.69;5091500;28;20269;-80
2023/04/20 02:48:02;;;;;;;14.87;10.03;;;;;;;10.31;95.01;94226.09;5095129;28;20201;-80
2023/04/20 02:50:30;;;;;;;13.57;10.50;;;;;;;10.30;95.05;94227.13;5102824;28;20204;-79
2023/04/20 02:52:57;;;;;;;17.10;11.23;;;;;;;10.25;94.39;94223.41;5106249;28;20301;-80
2023/04/20 02:55:24;;;;;;;18.97;11.10;;;;;;;9.98;95.86;94227.44;5103685;28;20220;-79
2023/04/20 02:57:50;;;;;;;17.13;11.13;;;;;;;9.82;95.99;94222.88;5105650;28;20249;-80
2023/04/20 03:00:18;;;;;;;21.10;11.43;;;;;;;9.64;96.80;94223.75;5101170;28;20200;-79
2023/04/20 03:02:45;;;;;;;17.43;10.97;;;;;;;9.66;97.15;94228.72;5104486;28;20278;-80
2023/04/20 03:05:12;;;;;;;16.40;10.70;;;;;;;9.44;97.43;94222.44;5099739;28;20229;-79
2023/04/20 03:07:40;;;;;;;15.43;10.57;;;;;;;9.36;97.97;94217.56;5104047;28;20200;-77
2023/04/20 03:10:08;;;;;;;14.03;10.30;;;;;;;9.20;98.27;94220.81;5105642;28;20204;-78
2023/04/20 03:12:35;;;;;;;13.77;10.23;;;;;;;9.20;98.80;94226.78;5109626;28;20226;-80
2023/04/20 03:15:05;;;;;;;14.27;9.97;;;;;;;9.23;99.18;94217.78;5101747;28;20232;-80
2023/04/20 03:17:31;;;;;;;14.47;10.33;;;;;;;9.24;98.33;94207.16;5101336;28;20291;-80
2023/04/20 03:19:58;;;;;;;15.30;9.80;;;;;;;9.33;97.61;94215.44;5106154;28;20197;-80
2023/04/20 03:22:25;;;;;;;13.13;9.80;;;;;;;9.43;97.54;94216.50;5104782;28;20201;-77
2023/04/20 03:24:53;;;;;;;17.13;10.60;;;;;;;9.51;98.21;94223.16;5103995;28;20303;-78
2023/04/20 03:27:20;;;;;;;15.93;10.73;;;;;;;9.62;97.80;94224.97;5103321;28;20196;-78
2023/04/20 03:29:47;;;;;;;16.53;11.20;;;;;;;9.76;95.90;94217.78;5109583;28;20196;-78
2023/04/20 03:32:14;;;;;;;15.57;10.50;;;;;;;9.80;96.04;94232.69;5107698;28;20560;-81
2023/04/20 03:34:41;;;;;;;18.87;10.70;;;;;;;9.88;96.02;94229.78;5099610;28;20686;-81
2023/04/20 03:37:08;;;;;;;18.90;11.80;;;;;;;9.94;95.61;94230.69;5104923;28;20756;-82
2023/04/20 03:39:35;;;;;;;17.03;11.80;;;;;;;9.96;95.07;94226.84;5099231;28;20640;-80
2023/04/20 03:42:03;;;;;;;18.30;12.53;;;;;;;9.96;95.33;94216.47;5101216;28;20238;-79
2023/04/20 03:44:30;;;;;;;21.97;13.10;;;;;;;10.12;95.12;94233.19;5094365;28;20678;-78
2023/04/20 03:46:57;;;;;;;19.47;12.57;;;;;;;10.05;95.03;94222.09;5104211;28;20203;-79
2023/04/20 03:49:24;;;;;;;16.07;12.03;;;;;;;10.09;94.36;94231.03;5099880;28;20219;-78
2023/04/20 03:51:51;;;;;;;16.13;11.10;;;;;;;10.16;94.43;94224.75;5096174;28;20591;-81
2023/04/20 03:54:18;;;;;;;18.17;10.97;;;;;;;10.06;94.50;94232.28;5093792;28;20545;-80
2023/04/20 03:56:45;;;;;;;18.93;12.27;;;;;;;9.84;94.65;94213.06;5099775;28;20220;-80
2023/04/20 03:59:13;;;;;;;15.07;11.47;;;;;;;9.78;95.30;94237.34;5101986;28;20204;-80
2023/04/20 04:01:42;;;;;;;19.20;12.97;;;;;;;9.74;94.83;94219.81;5087617;28;20219;-79
2023/04/20 04:04:09;;;;;;;25.63;14.97;;;;;;;9.58;95.70;94227.22;5090596;28;20233;-81
2023/04/20 04:06:35;;;;;;;20.23;13.73;;;;;;;9.65;95.34;94230.53;5095824;28;20284;-80
2023/04/20 04:09:02;;;;;;;22.10;13.70;;;;;;;9.59;97.09;94233.22;5095052;28;20220;-79
2023/04/20 04:11:33;;;;;;;24.57;16.10;;;;;;;9.47;96.74;94233.19;5093835;28;20662;-82
2023/04/20 04:14:00;;;;;;;31.53;17.43;;;;;;;9.52;96.74;94233.28;5090796;28;21147;-82
2023/04/20 04:16:28;;;;;;;22.00;14.37;;;;;;;9.65;96.96;94245.28;5093053;28;20758;-82
2023/04/20 04:18:55;;;;;;;19.87;12.70;;;;;;;9.59;96.43;94236.59;5096356;28;20193;-81
2023/04/20 04:21:22;;;;;;;24.97;14.67;;;;;;;9.59;96.04;94239.19;5093708;28;20200;-82
2023/04/20 04:23:49;;;;;;;17.07;11.67;;;;;;;9.58;95.81;94239.44;5096159;28;20216;-81
2023/04/20 04:26:16;;;;;;;18.97;12.60;;;;;;;9.55;95.50;94234.69;5090090;28;20205;-82
2023/04/20 04:28:44;;;;;;;18.90;12.77;;;;;;;9.40;95.87;94226.50;5094881;28;20759;-84
2023/04/20 04:31:11;;;;;;;16.37;11.40;;;;;;;9.45;96.28;94237.81;5089558;28;20276;-85
2023/04/20 04:33:39;;;;;;;22.13;12.20;;;;;;;9.54;96.51;94240.88;5101299;28;20204;-85
2023/04/20 04:36:07;;;;;;;14.90;11.50;;;;;;;9.57;95.80;94245.63;5101910;28;20224;-85
2023/04/20 04:38:33;;;;;;;18.50;12.30;;;;;;;9.58;95.94;94242.03;5101849;28;20212;-86
2023/04/20 04:41:00;;;;;;;23.87;11.37;;;;;;;9.50;96.06;94245.69;5095010;28;20204;-84
2023/04/20 04:43:28;;;;;;;18.03;11.33;;;;;;;9.62;95.31;94243.94;5098518;28;20211;-83
2023/04/20 04:45:57;;;;;;;23.83;12.73;;;;;;;9.64;94.56;94238.50;5090577;28;20224;-84
2023/04/20 04:48:24;;;;;;;17.97;11.43;;;;;;;9.80;95.11;94258.66;5089310;28;20212;-84
2023/04/20 04:50:52;;;;;;;17.30;11.57;;;;;;;9.87;93.68;94256.72;5089362;28;20201;-85
2023/04/20 04:53:19;;;;;;;22.63;11.73;;;;;;;9.72;94.41;94258.97;5095191;28;20622;-84
2023/04/20 04:55:46;;;;;;;19.83;11.77;;;;;;;9.83;94.34;94265.19;5094065;28;20207;-84
2023/04/20 04:58:12;;;;;;;20.17;12.13;;;;;;;9.77;93.98;94255.69;5096910;28;20215;-85
2023/04/20 05:00:39;;;;;;;17.90;12.53;;;;;;;9.86;94.45;94265.56;5092157;28;20201;-86
2023/04/20 05:03:06;;;;;;;21.80;13.60;;;;;;;9.96;93.62;94270.97;5100311;28;20203;-85
2023/04/20 05:05:33;;;;;;;27.30;14.10;;;;;;;9.87;94.15;94267.13;5090533;28;20730;-82
2023/04/20 05:08:01;;;;;;;19.17;12.70;;;;;;;9.77;94.88;94271.28;5094810;28;20200;-84
2023/04/20 05:10:28;;;;;;;18.73;12.00;;;;;;;9.68;95.05;94271.59;5093775;28;20610;-84
2023/04/20 05:12:57;;;;;;;18.23;11.87;;;;;;;9.63;94.92;94273.28;5093411;28;20203;-85
2023/04/20 05:15:24;;;;;;;20.60;12.43;;;;;;;9.55;95.34;94255.44;5088711;28;20269;-85
2023/04/20 05:17:51;;;;;;;21.53;12.73;;;;;;;9.56;95.90;94262.97;5089792;28;20303;-86
2023/04/20 05:20:19;;;;;;;17.17;11.77;;;;;;;9.57;95.71;94261.97;5092211;28;20254;-85
2023/04/20 05:22:49;;;;;;;19.67;12.83;;;;;;;9.74;95.31;94269.91;5089669;28;20245;-86
2023/04/20 05:25:18;;;;;;;21.27;13.67;;;;;;;9.73;95.23;94270.91;5089207;28;20220;-85
2023/04/20 05:27:46;;;;;;;19.43;13.70;;;;;;;9.79;95.28;94277.03;5086931;28;20208;-86
2023/04/20 05:30:13;;;;;;;18.97;13.03;;;;;;;9.75;95.39;94273.31;5094310;28;20208;-91
2023/04/20 05:32:40;;;;;;;22.70;12.97;;;;;;;9.72;95.85;94269.34;5090046;28;20197;-87
2023/04/20 05:35:08;;;;;;;20.97;14.03;;;;;;;9.87;94.67;94271.53;5089247;28;20285;-85
2023/04/20 05:37:35;;;;;;;23.90;15.00;;;;;;;10.01;94.13;94280.69;5091805;28;20228;-86
2023/04/20 05:40:01;;;;;;;22.33;14.97;;;;;;;10.01;94.47;94278.09;5096813;28;20208;-85
2023/04/20 05:42:30;;;;;;;22.80;13.40;;;;;;;10.16;93.41;94278.47;5094036;28;20200;-84
2023/04/20 05:44:56;;;;;;;21.97;13.67;;;;;;;10.13;93.52;94276.31;5092842;28;20204;-84
2023/04/20 05:47:23;;;;;;;23.30;14.03;;;;;;;10.18;94.31;94282.47;5092620;28;20215;-85
2023/04/20 05:49:50;;;;;;;20.13;13.57;;;;;;;10.17;93.81;94283.47;5093551;28;20200;-82
2023/04/20 05:52:17;;;;;;;24.80;15.03;;;;;;;10.11;94.56;94278.34;5097002;28;20197;-85
2023/04/20 05:54:43;;;;;;;21.93;15.10;;;;;;;10.18;95.17;94287.66;5094754;28;20595;-86
2023/04/20 05:57:11;;;;;;;29.13;16.90;;;;;;;10.08;96.65;94283.97;5095072;28;20579;-87
2023/04/20 05:59:40;;;;;;;23.70;15.87;;;;;;;9.95;96.95;94269.41;5100703;28;20257;-86
2023/04/20 06:02:07;;;;;;;23.63;15.47;;;;;;;10.04;97.18;94281.03;5093970;28;20686;-86
2023/04/20 06:04:33;;;;;;;21.27;15.07;;;;;;;9.85;98.32;94279.53;5095135;28;20232;-86
2023/04/20 06:07:01;;;;;;;21.73;14.97;;;;;;;9.86;99.57;94270.75;5094030;28;20200;-87
2023/04/20 06:09:27;;;;;;;24.40;16.10;;;;;;;9.96;99.24;94278.75;5096090;28;20211;-85
2023/04/20 06:14:35;;;;;;;25.10;16.67;;;;;;;10.14;98.94;94272.72;5094942;28;20280;-84
2023/04/20 06:17:03;;;;;;;27.50;16.43;;;;;;;10.14;99.40;94281.31;5092692;28;20271;-85
2023/04/20 06:19:30;;;;;;;27.67;18.10;;;;;;;10.11;99.47;94273.94;5095897;28;20687;-84
2023/04/20 06:21:58;;;;;;;30.53;19.10;;;;;;;10.04;99.53;94275.84;5092141;28;20199;-82
2023/04/20 06:24:26;;;;;;;28.97;18.17;;;;;;;10.04;99.34;94264.69;5093404;28;20651;-84
2023/04/20 06:26:53;;;;;;;25.00;17.70;;;;;;;10.08;100.00;94271.78;5094144;28;20195;-85
2023/04/20 06:29:20;;;;;;;26.30;17.40;;;;;;;10.28;98.24;94289.66;5100226;28;20740;-84
2023/04/20 06:31:47;;;;;;;27.87;18.07;;;;;;;10.33;98.08;94283.81;5097183;28;20208;-82
2023/04/20 06:34:15;;;;;;;23.63;16.67;;;;;;;10.37;97.89;94295.31;5111056;28;20200;-84
2023/04/20 06:36:43;;;;;;;26.47;17.87;;;;;;;10.30;97.70;94276.47;5108408;28;20246;-83
2023/04/20 06:39:11;;;;;;;25.60;16.73;;;;;;;10.42;97.41;94293.63;5110624;28;20256;-83
2023/04/20 06:41:38;;;;;;;25.67;16.27;;;;;;;10.11;98.68;94268.75;5110692;28;20199;-84
2023/04/20 06:44:05;;;;;;;26.40;17.33;;;;;;;10.24;98.68;94298.94;5110675;28;20295;-82
2023/04/20 06:46:32;;;;;;;26.37;18.07;;;;;;;10.16;99.43;94304.44;5114082;28;20220;-82
2023/04/20 06:48:59;;;;;;;25.13;16.63;;;;;;;10.18;100.00;94289.44;5106150;28;20197;-82
2023/04/20 06:51:28;;;;;;;23.97;16.00;;;;;;;10.22;100.00;94306.94;5107687;28;20198;-83
2023/04/20 06:53:55;;;;;;;22.73;15.83;;;;;;;10.14;100.00;94314.25;5104459;28;20211;-82
2023/04/20 06:56:22;;;;;;;22.47;16.20;;;;;;;10.00;100.00;94300.66;5104033;28;20284;-83
2023/04/20 06:58:49;;;;;;;27.53;16.47;;;;;;;10.00;100.00;94297.28;5108461;28;20214;-81
2023/04/20 07:01:16;;;;;;;24.50;16.13;;;;;;;9.89;100.00;94295.47;5107740;28;20208;-83
2023/04/20 07:03:45;;;;;;;24.30;16.00;;;;;;;9.87;100.00;94311.22;5121020;28;20218;-83
2023/04/20 07:06:15;;;;;;;25.77;17.10;;;;;;;9.90;100.00;94286.66;5120955;28;20199;-81
2023/04/20 07:08:44;;;;;;;23.97;16.10;;;;;;;10.04;100.00;94314.00;5110088;28;20258;-86
2023/04/20 07:11:11;;;;;;;22.97;16.20;;;;;;;9.70;100.00;94261.78;5111303;28;20192;-82
2023/04/20 07:13:37;;;;;;;24.23;16.00;;;;;;;9.95;100.00;94318.72;5115118;28;20209;-81
2023/04/20 07:16:05;;;;;;;23.63;16.43;;;;;;;9.57;100.00;94259.38;5122955;28;20226;-82
2023/04/20 07:18:32;;;;;;;25.77;17.50;;;;;;;10.01;100.00;94317.03;5115884;28;20233;-85
2023/04/20 07:20:58;;;;;;;31.40;18.33;;;;;;;10.17;100.00;94306.03;5114545;28;20208;-84
2023/04/20 07:23:25;;;;;;;30.77;19.03;;;;;;;10.34;100.00;94314.75;5111869;28;20209;-81
2023/04/20 07:25:54;;;;;;;33.27;18.80;;;;;;;10.44;100.00;94315.00;5117799;28;20196;-81
2023/04/20 07:28:21;;;;;;;31.03;20.23;;;;;;;10.56;100.00;94313.16;5110948;28;20203;-85
2023/04/20 07:30:47;;;;;;;27.47;19.23;;;;;;;10.69;100.00;94322.56;5118671;28;20200;-83
2023/04/20 07:33:14;;;;;;;29.97;17.00;;;;;;;10.71;100.00;94294.53;5116280;28;20192;-81
2023/04/20 07:35:41;;;;;;;28.83;16.80;;;;;;;10.76;99.93;94313.63;5118031;28;20202;-84
2023/04/20 07:38:08;;;;;;;21.23;14.30;;;;;;;10.83;97.89;94316.09;5114120;28;20231;-82
2023/04/20 07:40:35;;;;;;;25.20;15.87;;;;;;;11.01;96.67;94315.97;5118078;28;20208;-83
2023/04/20 07:43:03;;;;;;;19.97;14.23;;;;;;;11.20;95.64;94314.00;5118357;28;20195;-83
2023/04/20 07:48:27;;;;;;;18.87;12.50;;;;;;;10.90;92.58;94241.41;5119705;28;20698;-83
2023/04/20 07:50:55;;;;;;;17.60;12.63;;;;;;;10.68;93.17;94230.81;5120246;28;20221;-82
2023/04/20 07:53:24;;;;;;;19.50;13.93;;;;;;;10.62;93.50;94220.56;5123992;28;20193;-81
2023/04/20 07:55:55;;;;;;;23.27;14.70;;;;;;;11.00;94.54;94257.19;5127793;28;20214;-81
2023/04/20 07:58:25;;;;;;;21.30;14.97;;;;;;;11.40;94.51;94309.22;5122814;28;20226;-79
2023/04/20 08:00:55;;;;;;;19.40;14.13;;;;;;;11.05;92.51;94231.31;5122240;28;20199;-79
2023/04/20 08:03:22;;;;;;;18.07;12.63;;;;;;;11.69;92.62;94304.81;5122253;28;20192;-79
2023/04/20 08:05:49;;;;;;;16.83;12.83;;;;;;;11.88;91.87;94306.22;5122286;28;20250;-79
2023/04/20 08:08:19;;;;;;;16.30;12.20;;;;;;;12.04;88.88;94320.28;5119512;28;20712;-80
2023/04/20 08:10:55;;;;;;;17.00;13.17;;;;;;;11.79;88.61;94265.97;5120316;28;20194;-81
2023/04/20 08:13:28;;;;;;;17.87;11.80;;;;;;;11.60;88.26;94230.75;5120905;28;20654;-79
2023/04/20 08:16:00;;;;;;;17.07;13.13;;;;;;;11.80;89.09;94272.78;5118707;28;20206;-80
2023/04/20 08:18:33;;;;;;;23.97;12.33;;;;;;;11.41;89.05;94227.53;5121093;28;20216;-81
2023/04/20 08:21:02;;;;;;;16.63;12.47;;;;;;;11.77;89.90;94327.91;5122784;28;20189;-79
2023/04/20 08:23:32;;;;;;;22.17;14.10;;;;;;;11.29;90.76;94271.81;5121901;28;20994;-80
2023/04/20 08:25:59;;;;;;;19.33;12.60;;;;;;;11.33;91.69;94319.75;5083493;28;20640;-80
2023/04/20 08:28:33;;;;;;;18.77;13.13;;;;;;;11.19;91.94;94278.63;5114837;28;20196;-79
2023/04/20 08:31:03;;;;;;;21.47;14.07;;;;;;;11.51;92.09;94324.00;5104058;28;20199;-79
2023/04/20 08:33:34;;;;;;;18.87;12.10;;;;;;;11.39;90.97;94294.63;5120355;28;20172;-80
2023/04/20 08:36:00;;;;;;;18.43;12.00;;;;;;;11.42;91.89;94316.78;5112238;28;20569;-81
2023/04/20 08:38:27;;;;;;;15.40;11.87;;;;;;;11.37;91.45;94318.25;5102214;28;20227;-81
2023/04/20 08:40:56;;;;;;;22.67;12.97;;;;;;;11.34;91.36;94304.94;5114949;28;20480;-79
2023/04/20 08:43:23;;;;;;;19.37;12.93;;;;;;;11.32;91.97;94301.78;5120685;28;20275;-80
2023/04/20 08:45:57;;;;;;;18.87;13.40;;;;;;;11.47;91.21;94330.69;5118196;28;20248;-83
2023/04/20 08:48:25;;;;;;;19.53;12.53;;;;;;;11.32;90.65;94322.59;5116835;28;20189;-82
2023/04/20 08:50:52;;;;;;;19.50;12.73;;;;;;;11.36;91.53;94321.13;5112225;28;20193;-84
2023/04/20 08:53:19;;;;;;;19.40;12.40;;;;;;;11.38;90.94;94329.47;5116471;28;20194;-85
2023/04/20 08:55:48;;;;;;;16.97;12.00;;;;;;;11.48;90.19;94324.47;5122464;28;20188;-86
2023/04/20 08:58:16;;;;;;;18.33;12.40;;;;;;;11.34;90.61;94318.72;5113842;28;20212;-86
2023/04/20 09:01:02;;;;;;;20.63;13.33;;;;;;;11.17;90.93;94289.25;5121162;28;20199;-84
2023/04/20 09:03:36;;;;;;;19.57;12.60;;;;;;;11.39;91.23;94326.66;5118299;28;20196;-83
2023/04/20 09:06:04;;;;;;;19.17;12.43;;;;;;;11.47;91.28;94330.69;5113196;28;20185;-83
2023/04/20 09:08:35;;;;;;;19.20;13.00;;;;;;;11.46;90.20;94318.69;5112497;28;20571;-84
2023/04/20 09:11:02;;;;;;;18.20;13.10;;;;;;;11.49;90.55;94326.03;5118839;28;20200;-84
2023/04/20 09:13:29;;;;;;;22.67;13.80;;;;;;;11.65;90.53;94329.72;5122982;28;20173;-84
2023/04/20 09:15:56;;;;;;;19.37;13.00;;;;;;;11.63;89.81;94324.75;5111816;28;20655;-85
2023/04/20 09:18:24;;;;;;;17.07;12.87;;;;;;;11.67;89.61;94325.88;5127545;28;20267;-83
2023/04/20 09:20:51;;;;;;;19.30;12.60;;;;;;;11.80;88.61;94330.81;5128164;28;20204;-84
2023/04/20 09:23:21;;;;;;;18.30;12.53;;;;;;;11.88;87.86;94327.84;5128261;28;20196;-85
2023/04/20 09:25:52;;;;;;;17.73;12.63;;;;;;;11.89;87.87;94323.41;5121101;28;20200;-87
2023/04/20 09:28:19;;;;;;;15.03;11.53;;;;;;;12.00;87.82;94321.78;5110245;28;20184;-82
2023/04/20 09:30:47;;;;;;;16.60;12.73;;;;;;;12.01;87.25;94316.34;5123153;28;20283;-84
2023/04/20 09:33:15;;;;;;;22.50;14.77;;;;;;;12.11;87.69;94311.31;5105096;28;20670;-85
2023/04/20 09:35:44;;;;;;;20.87;13.63;;;;;;;12.23;86.97;94319.06;5101345;28;20193;-84
2023/04/20 09:38:15;;;;;;;21.27;14.33;;;;;;;12.29;87.32;94316.31;5118393;28;20279;-84
2023/04/20 09:40:42;;;;;;;19.73;13.40;;;;;;;12.38;86.83;94311.50;5110482;28;20204;-84
2023/04/20 09:43:12;;;;;;;20.27;13.63;;;;;;;12.53;86.63;94312.50;5120455;28;20192;-84
2023/04/20 09:45:39;;;;;;;19.20;12.93;;;;;;;12.65;86.20;94309.00;5119076;28;20219;-82
2023/04/20 09:48:09;;;;;;;18.90;13.87;;;;;;;12.79;85.25;94294.63;5120930;28;20200;-85
2023/04/20 09:50:37;;;;;;;19.27;13.77;;;;;;;12.99;84.47;94323.56;5103243;28;20279;-85
2023/04/20 09:53:06;;;;;;;17.17;12.03;;;;;;;12.72;84.37;94296.63;5091973;28;20253;-85
2023/04/20 09:55:33;;;;;;;16.17;11.93;;;;;;;12.59;85.54;94310.75;5098409;28;20189;-85
2023/04/20 09:58:02;;;;;;;18.87;12.67;;;;;;;12.61;86.00;94300.88;5118309;28;20220;-84
2023/04/20 10:00:29;;;;;;;18.20;12.63;;;;;;;12.65;85.54;94302.00;5117091;28;20199;-84
2023/04/20 10:02:56;;;;;;;19.73;13.47;;;;;;;12.75;86.16;94302.16;5115199;28;20216;-84
2023/04/20 10:05:34;;;;;;;16.53;12.30;;;;;;;12.93;85.43;94298.44;5116517;28;20220;-85
2023/04/20 10:08:01;;;;;;;23.33;12.70;;;;;;;12.95;83.60;94289.38;5096582;28;20184;-85
2023/04/20 10:10:30;;;;;;;18.60;13.50;;;;;;;13.02;83.92;94292.59;5108766;28;20678;-84
2023/04/20 10:12:59;;;;;;;15.20;11.93;;;;;;;13.18;82.45;94292.81;5116750;28;20199;-84
2023/04/20 10:15:36;;;;;;;17.60;11.77;;;;;;;13.04;81.90;94277.47;5108662;28;20270;-85
2023/04/20 10:18:16;;;;;;;14.67;11.57;;;;;;;13.12;82.15;94284.13;5097152;28;20623;-83
2023/04/20 10:20:43;;;;;;;17.57;10.80;;;;;;;13.31;80.47;94279.41;5093981;28;20631;-84
2023/04/20 10:23:13;;;;;;;12.87;10.67;;;;;;;13.44;80.62;94285.06;5093481;28;20667;-84
2023/04/20 10:25:44;;;;;;;19.03;11.50;;;;;;;13.59;79.81;94287.03;5118062;28;20220;-85
2023/04/20 10:28:11;;;;;;;17.03;12.27;;;;;;;13.81;79.91;94287.00;5118683;28;20203;-83
2023/04/20 10:30:49;;;;;;;18.97;11.90;;;;;;;13.82;79.91;94275.50;5120990;28;20232;-84
2023/04/20 10:33:17;;;;;;;15.20;10.97;;;;;;;13.94;78.78;94276.16;5120187;28;20184;-84
2023/04/20 10:35:48;;;;;;;17.00;11.17;;;;;;;14.01;77.64;94285.34;5118609;28;20207;-84
2023/04/20 10:38:15;;;;;;;14.97;10.87;;;;;;;13.97;76.55;94279.03;5103126;28;20219;-85
2023/04/20 10:40:43;;;;;;;12.57;10.03;;;;;;;14.05;76.70;94275.97;5098153;28;20254;-83
2023/04/20 10:43:21;;;;;;;12.60;10.00;;;;;;;13.86;78.70;94260.91;5095471;28;20192;-83
2023/04/20 10:45:48;;;;;;;13.90;10.80;;;;;;;13.99;78.17;94268.34;5074473;28;20225;-82
2023/04/20 10:48:15;;;;;;;15.03;11.10;;;;;;;14.06;78.09;94282.00;5083783;28;20562;-81
2023/04/20 10:50:42;;;;;;;14.53;11.70;;;;;;;14.38;77.22;94284.63;5112443;28;20196;-82
2023/04/20 10:53:18;;;;;;;20.30;10.60;;;;;;;14.73;75.73;94280.44;5094706;28;20193;-82
2023/04/20 10:55:46;;;;;;;13.53;10.30;;;;;;;15.02;74.84;94295.78;5095231;28;20636;-83
2023/04/20 10:58:23;;;;;;;12.57;10.13;;;;;;;15.33;73.97;94285.19;5100115;28;20277;-83
2023/04/20 11:01:01;;;;;;;11.77;8.93;;;;;;;15.46;72.67;94272.69;5116641;28;20316;-83
2023/04/20 11:03:29;;;;;;;11.93;9.63;;;;;;;15.66;72.46;94268.31;5117134;28;20195;-83
2023/04/20 11:06:00;;;;;;;13.03;9.23;;;;;;;15.49;72.13;94272.19;5118222;28;20234;-83
2023/04/20 11:08:37;;;;;;;15.60;9.30;;;;;;;15.48;72.50;94263.56;5115930;28;20176;-84
2023/04/20 11:11:06;;;;;;;14.77;8.80;;;;;;;15.67;72.56;94269.88;5116701;28;20206;-84
2023/04/20 11:13:33;;;;;;;13.40;9.37;;;;;;;15.81;71.13;94268.34;5116313;28;20195;-84
2023/04/20 11:16:09;;;;;;;14.17;10.70;;;;;;;15.88;71.77;94276.75;5115177;28;20188;-82
2023/04/20 11:18:36;;;;;;;12.73;9.20;;;;;;;16.15;70.52;94263.41;5114995;28;20241;-83
2023/04/20 11:21:03;;;;;;;13.70;8.67;;;;;;;16.42;69.35;94255.28;5115085;28;20192;-83
2023/04/20 11:23:38;;;;;;;10.27;8.40;;;;;;;16.74;66.75;94265.50;5115279;28;20240;-83
2023/04/20 11:26:06;;;;;;;13.03;9.27;;;;;;;16.90;67.05;94253.94;5115151;28;20304;-82
2023/04/20 11:28:34;;;;;;;17.10;9.67;;;;;;;17.26;66.16;94271.13;5115085;28;20252;-83
2023/04/20 11:31:01;;;;;;;12.90;9.47;;;;;;;17.39;65.23;94262.69;5109401;28;20663;-83